Terminal Aerodrome Forecast
Issued by NWS North Platte, NE

Home | Current Version | Previous Version | Text Only | Print | Product List | Glossary On
Versions: 1 2 3 4 5 6 7 8 9 10 11 12 13 14 15 16 17 18 19 20 21 22
000
FTUS43 KLBF 302320
TAFLBF
TAF
KLBF 302320Z 0100/0124 01024G30KT P6SM OVC030
     FM010300 34012G19KT P6SM BKN100
     FM010500 32012KT P6SM SCT250
     FM011500 31012G20KT P6SM FEW200
     FM011800 32020G32KT P6SM FEW200=

USA.gov is the U.S. government's official web portal to all federal, state and local government web resources and services.